sensor_id;sensor_type;location;lat;lon;timestamp;pressure;altitude;pressure_sealevel;temperature;humidity
9709;BME280;4893;42.024;23.098;2022-11-20T00:00:50;96366.75;;;17.50;100.00
9709;BME280;4893;42.024;23.098;2022-11-20T00:03:15;96344.59;;;17.46;100.00
9709;BME280;4893;42.024;23.098;2022-11-20T00:05:42;96350.41;;;17.48;100.00
9709;BME280;4893;42.024;23.098;2022-11-20T00:08:07;96348.13;;;17.40;100.00
9709;BME280;4893;42.024;23.098;2022-11-20T00:10:36;96354.31;;;17.46;100.00
9709;BME280;4893;42.024;23.098;2022-11-20T00:13:01;96350.28;;;17.43;100.00
9709;BME280;4893;42.024;23.098;2022-11-20T00:15:27;96350.16;;;17.38;100.00
9709;BME280;4893;42.024;23.098;2022-11-20T00:17:52;96341.28;;;17.39;100.00
9709;BME280;4893;42.024;23.098;2022-11-20T00:20:18;96349.16;;;17.39;100.00
9709;BME280;4893;42.024;23.098;2022-11-20T00:22:43;96345.38;;;17.35;100.00
9709;BME280;4893;42.024;23.098;2022-11-20T00:25:09;96325.09;;;17.31;100.00
9709;BME280;4893;42.024;23.098;2022-11-20T00:27:35;96339.56;;;17.22;100.00
9709;BME280;4893;42.024;23.098;2022-11-20T00:30:00;96326.91;;;17.07;100.00
9709;BME280;4893;42.024;23.098;2022-11-20T00:32:29;96342.00;;;17.12;100.00
9709;BME280;4893;42.024;23.098;2022-11-20T00:34:54;96348.25;;;17.11;100.00
9709;BME280;4893;42.024;23.098;2022-11-20T00:37:27;96354.78;;;17.20;100.00
9709;BME280;4893;42.024;23.098;2022-11-20T00:39:52;96347.25;;;17.12;100.00
9709;BME280;4893;42.024;23.098;2022-11-20T00:42:18;96335.25;;;17.04;100.00
9709;BME280;4893;42.024;23.098;2022-11-20T00:44:43;96350.53;;;17.19;100.00
9709;BME280;4893;42.024;23.098;2022-11-20T00:47:09;96358.53;;;17.24;100.00
9709;BME280;4893;42.024;23.098;2022-11-20T00:49:34;96351.09;;;17.21;100.00
9709;BME280;4893;42.024;23.098;2022-11-20T00:51:59;96340.16;;;17.24;100.00
9709;BME280;4893;42.024;23.098;2022-11-20T00:54:25;96341.75;;;17.25;100.00
9709;BME280;4893;42.024;23.098;2022-11-20T00:56:52;96333.19;;;17.18;100.00
9709;BME280;4893;42.024;23.098;2022-11-20T00:59:18;96317.81;;;17.10;100.00
9709;BME280;4893;42.024;23.098;2022-11-20T01:01:43;96312.44;;;17.16;100.00
9709;BME280;4893;42.024;23.098;2022-11-20T01:04:09;96323.16;;;17.15;100.00
9709;BME280;4893;42.024;23.098;2022-11-20T01:06:36;96319.28;;;17.17;100.00
9709;BME280;4893;42.024;23.098;2022-11-20T01:09:09;96314.50;;;17.14;100.00
9709;BME280;4893;42.024;23.098;2022-11-20T01:11:53;96312.22;;;17.18;100.00
9709;BME280;4893;42.024;23.098;2022-11-20T01:14:19;96266.78;;;17.17;100.00
9709;BME280;4893;42.024;23.098;2022-11-20T01:16:48;96294.66;;;17.18;100.00
9709;BME280;4893;42.024;23.098;2022-11-20T01:19:20;96291.44;;;17.16;100.00
9709;BME280;4893;42.024;23.098;2022-11-20T01:21:49;96284.94;;;17.19;100.00
9709;BME280;4893;42.024;23.098;2022-11-20T01:24:22;96284.56;;;17.27;100.00
9709;BME280;4893;42.024;23.098;2022-11-20T01:26:49;96300.78;;;17.24;100.00
9709;BME280;4893;42.024;23.098;2022-11-20T01:29:17;96289.28;;;17.25;100.00
9709;BME280;4893;42.024;23.098;2022-11-20T01:31:44;96286.53;;;17.20;100.00
9709;BME280;4893;42.024;23.098;2022-11-20T01:34:12;96289.94;;;17.20;100.00
9709;BME280;4893;42.024;23.098;2022-11-20T01:36:39;96279.22;;;17.22;100.00
9709;BME280;4893;42.024;23.098;2022-11-20T01:39:12;96271.34;;;17.10;100.00
9709;BME280;4893;42.024;23.098;2022-11-20T01:41:38;96274.63;;;17.29;100.00
9709;BME280;4893;42.024;23.098;2022-11-20T01:44:52;96276.91;;;17.37;100.00
9709;BME280;4893;42.024;23.098;2022-11-20T01:47:32;96245.91;;;17.22;100.00
9709;BME280;4893;42.024;23.098;2022-11-20T01:50:04;96236.97;;;17.23;100.00
9709;BME280;4893;42.024;23.098;2022-11-20T01:52:38;96261.94;;;17.37;100.00
9709;BME280;4893;42.024;23.098;2022-11-20T01:55:10;96245.66;;;17.24;100.00
9709;BME280;4893;42.024;23.098;2022-11-20T01:57:45;96250.66;;;17.37;100.00
9709;BME280;4893;42.024;23.098;2022-11-20T02:00:14;96256.84;;;17.31;100.00
9709;BME280;4893;42.024;23.098;2022-11-20T02:02:43;96255.91;;;17.37;100.00
9709;BME280;4893;42.024;23.098;2022-11-20T02:05:27;96270.06;;;17.36;100.00
9709;BME280;4893;42.024;23.098;2022-11-20T02:07:56;96261.94;;;17.37;100.00
9709;BME280;4893;42.024;23.098;2022-11-20T02:10:23;96250.44;;;17.27;100.00
9709;BME280;4893;42.024;23.098;2022-11-20T02:12:48;96265.34;;;17.38;100.00
9709;BME280;4893;42.024;23.098;2022-11-20T02:15:33;96259.69;;;17.29;100.00
9709;BME280;4893;42.024;23.098;2022-11-20T02:17:58;96272.94;;;17.34;100.00
9709;BME280;4893;42.024;23.098;2022-11-20T02:20:24;96244.06;;;17.23;100.00
9709;BME280;4893;42.024;23.098;2022-11-20T02:23:00;96251.59;;;17.31;100.00
9709;BME280;4893;42.024;23.098;2022-11-20T02:25:27;96261.63;;;17.34;100.00
9709;BME280;4893;42.024;23.098;2022-11-20T02:27:54;96251.59;;;17.31;100.00
9709;BME280;4893;42.024;23.098;2022-11-20T02:30:19;96235.84;;;17.31;100.00
9709;BME280;4893;42.024;23.098;2022-11-20T02:32:45;96247.91;;;17.32;100.00
9709;BME280;4893;42.024;23.098;2022-11-20T02:37:48;96255.56;;;17.45;100.00
9709;BME280;4893;42.024;23.098;2022-11-20T02:40:14;96255.31;;;17.46;100.00
9709;BME280;4893;42.024;23.098;2022-11-20T02:42:39;96225.66;;;17.46;100.00
9709;BME280;4893;42.024;23.098;2022-11-20T02:45:06;96247.56;;;17.40;100.00
9709;BME280;4893;42.024;23.098;2022-11-20T02:47:32;96250.19;;;17.40;100.00
9709;BME280;4893;42.024;23.098;2022-11-20T02:49:57;96256.94;;;17.36;100.00
9709;BME280;4893;42.024;23.098;2022-11-20T02:52:23;96266.53;;;17.30;100.00
9709;BME280;4893;42.024;23.098;2022-11-20T02:54:49;96261.03;;;17.32;100.00
9709;BME280;4893;42.024;23.098;2022-11-20T02:57:15;96253.41;;;17.30;100.00
9709;BME280;4893;42.024;23.098;2022-11-20T02:59:40;96270.53;;;17.33;100.00
9709;BME280;4893;42.024;23.098;2022-11-20T03:02:05;96274.97;;;17.32;100.00
9709;BME280;4893;42.024;23.098;2022-11-20T03:04:31;96271.06;;;17.35;100.00
9709;BME280;4893;42.024;23.098;2022-11-20T03:06:56;96257.31;;;17.28;100.00
9709;BME280;4893;42.024;23.098;2022-11-20T03:09:22;96263.56;;;17.27;100.00
9709;BME280;4893;42.024;23.098;2022-11-20T03:11:47;96261.97;;;17.26;100.00
9709;BME280;4893;42.024;23.098;2022-11-20T03:14:19;96279.31;;;17.27;100.00
9709;BME280;4893;42.024;23.098;2022-11-20T03:16:44;96271.44;;;17.27;100.00
9709;BME280;4893;42.024;23.098;2022-11-20T03:19:12;96270.78;;;17.20;100.00
9709;BME280;4893;42.024;23.098;2022-11-20T03:21:38;96265.84;;;17.23;100.00
9709;BME280;4893;42.024;23.098;2022-11-20T03:24:04;96264.75;;;17.19;100.00
9709;BME280;4893;42.024;23.098;2022-11-20T03:26:30;96261.88;;;17.21;100.00
9709;BME280;4893;42.024;23.098;2022-11-20T03:28:57;96277.63;;;17.21;100.00
9709;BME280;4893;42.024;23.098;2022-11-20T03:31:30;96266.91;;;17.22;100.00
9709;BME280;4893;42.024;23.098;2022-11-20T03:33:56;96271.34;;;17.22;100.00
9709;BME280;4893;42.024;23.098;2022-11-20T03:36:22;96271.03;;;17.18;100.00
9709;BME280;4893;42.024;23.098;2022-11-20T03:38:48;96271.56;;;17.20;100.00
9709;BME280;4893;42.024;23.098;2022-11-20T03:41:20;96250.47;;;17.15;100.00
9709;BME280;4893;42.024;23.098;2022-11-20T03:46:19;96264.59;;;17.26;100.00
9709;BME280;4893;42.024;23.098;2022-11-20T03:48:45;96266.66;;;17.24;100.00
9709;BME280;4893;42.024;23.098;2022-11-20T03:51:18;96252.84;;;17.28;100.00
9709;BME280;4893;42.024;23.098;2022-11-20T03:53:45;96270.97;;;17.30;100.00
9709;BME280;4893;42.024;23.098;2022-11-20T03:56:13;96261.28;;;17.30;100.00
9709;BME280;4893;42.024;23.098;2022-11-20T03:58:40;96239.19;;;17.15;100.00
9709;BME280;4893;42.024;23.098;2022-11-20T04:01:12;96260.47;;;17.30;100.00
9709;BME280;4893;42.024;23.098;2022-11-20T04:03:39;96255.94;;;17.25;100.00
9709;BME280;4893;42.024;23.098;2022-11-20T04:06:06;96260.06;;;17.21;100.00
9709;BME280;4893;42.024;23.098;2022-11-20T04:08:32;96256.19;;;17.12;100.00
9709;BME280;4893;42.024;23.098;2022-11-20T04:11:30;96267.38;;;17.08;100.00
9709;BME280;4893;42.024;23.098;2022-11-20T04:13:58;96206.97;;;16.80;100.00
9709;BME280;4893;42.024;23.098;2022-11-20T04:16:25;96249.81;;;17.08;100.00
9709;BME280;4893;42.024;23.098;2022-11-20T04:18:56;96251.16;;;17.11;100.00
9709;BME280;4893;42.024;23.098;2022-11-20T04:21:23;96235.66;;;17.09;100.00
9709;BME280;4893;42.024;23.098;2022-11-20T04:23:50;96236.69;;;17.08;100.00
9709;BME280;4893;42.024;23.098;2022-11-20T04:26:15;96247.53;;;17.12;100.00
9709;BME280;4893;42.024;23.098;2022-11-20T04:28:41;96243.66;;;17.03;100.00
9709;BME280;4893;42.024;23.098;2022-11-20T04:31:09;96234.31;;;17.07;100.00
9709;BME280;4893;42.024;23.098;2022-11-20T04:33:36;96237.41;;;17.04;100.00
9709;BME280;4893;42.024;23.098;2022-11-20T04:36:03;96242.97;;;17.07;100.00
9709;BME280;4893;42.024;23.098;2022-11-20T04:38:29;96240.81;;;17.04;100.00
9709;BME280;4893;42.024;23.098;2022-11-20T04:41:03;96239.44;;;17.02;100.00
9709;BME280;4893;42.024;23.098;2022-11-20T04:43:30;96241.06;;;16.91;100.00
9709;BME280;4893;42.024;23.098;2022-11-20T04:45:57;96250.66;;;16.97;100.00
9709;BME280;4893;42.024;23.098;2022-11-20T04:48:24;96241.97;;;16.97;100.00
9709;BME280;4893;42.024;23.098;2022-11-20T04:50:50;96234.81;;;16.92;100.00
9709;BME280;4893;42.024;23.098;2022-11-20T04:53:16;96239.81;;;16.94;100.00
9709;BME280;4893;42.024;23.098;2022-11-20T04:55:41;96251.22;;;16.88;100.00
9709;BME280;4893;42.024;23.098;2022-11-20T04:58:07;96247.56;;;17.00;100.00
9709;BME280;4893;42.024;23.098;2022-11-20T05:00:32;96243.66;;;17.03;100.00
9709;BME280;4893;42.024;23.098;2022-11-20T05:02:58;96256.31;;;17.06;100.00
9709;BME280;4893;42.024;23.098;2022-11-20T05:05:23;96246.63;;;16.95;100.00
9709;BME280;4893;42.024;23.098;2022-11-20T05:07:49;96247.91;;;17.04;100.00
9709;BME280;4893;42.024;23.098;2022-11-20T05:10:15;96228.63;;;16.87;100.00
9709;BME280;4893;42.024;23.098;2022-11-20T05:12:40;96248.34;;;17.01;100.00
9709;BME280;4893;42.024;23.098;2022-11-20T05:15:06;96248.22;;;16.96;100.00
9709;BME280;4893;42.024;23.098;2022-11-20T05:17:32;96250.06;;;17.07;100.00
9709;BME280;4893;42.024;23.098;2022-11-20T05:19:57;96249.50;;;16.93;100.00
9709;BME280;4893;42.024;23.098;2022-11-20T05:22:23;96254.38;;;17.13;100.00
9709;BME280;4893;42.024;23.098;2022-11-20T05:24:48;96252.34;;;17.03;100.00
9709;BME280;4893;42.024;23.098;2022-11-20T05:27:14;96223.25;;;16.93;100.00
9709;BME280;4893;42.024;23.098;2022-11-20T05:29:39;96254.25;;;17.08;100.00
9709;BME280;4893;42.024;23.098;2022-11-20T05:32:05;96251.50;;;17.14;100.00
9709;BME280;4893;42.024;23.098;2022-11-20T05:34:32;96261.31;;;17.19;100.00
9709;BME280;4893;42.024;23.098;2022-11-20T05:36:58;96267.03;;;17.16;100.00
9709;BME280;4893;42.024;23.098;2022-11-20T05:39:23;96278.56;;;17.15;100.00
9709;BME280;4893;42.024;23.098;2022-11-20T05:41:48;96203.13;;;16.71;100.00
9709;BME280;4893;42.024;23.098;2022-11-20T05:44:34;96288.47;;;17.13;100.00
9709;BME280;4893;42.024;23.098;2022-11-20T05:46:59;96297.81;;;17.09;100.00
9709;BME280;4893;42.024;23.098;2022-11-20T05:49:24;96287.69;;;17.12;100.00
9709;BME280;4893;42.024;23.098;2022-11-20T05:51:50;96297.41;;;17.12;100.00
9709;BME280;4893;42.024;23.098;2022-11-20T05:54:15;96291.00;;;17.08;100.00
9709;BME280;4893;42.024;23.098;2022-11-20T05:56:41;96303.88;;;17.09;100.00
9709;BME280;4893;42.024;23.098;2022-11-20T05:59:07;96310.06;;;17.03;100.00
9709;BME280;4893;42.024;23.098;2022-11-20T06:01:32;96301.84;;;17.00;100.00
9709;BME280;4893;42.024;23.098;2022-11-20T06:03:57;96313.81;;;17.07;100.00
9709;BME280;4893;42.024;23.098;2022-11-20T06:06:23;96316.31;;;17.14;100.00
9709;BME280;4893;42.024;23.098;2022-11-20T06:08:50;96321.00;;;17.12;100.00
9709;BME280;4893;42.024;23.098;2022-11-20T06:11:16;96325.78;;;17.26;100.00
9709;BME280;4893;42.024;23.098;2022-11-20T06:13:42;96274.47;;;16.96;100.00
9709;BME280;4893;42.024;23.098;2022-11-20T06:16:08;96322.59;;;17.24;100.00
9709;BME280;4893;42.024;23.098;2022-11-20T06:18:34;96313.31;;;17.22;100.00
9709;BME280;4893;42.024;23.098;2022-11-20T06:21:10;96325.78;;;17.15;100.00
9709;BME280;4893;42.024;23.098;2022-11-20T06:23:37;96318.16;;;17.13;100.00
9709;BME280;4893;42.024;23.098;2022-11-20T06:26:04;96302.28;;;17.20;100.00
9709;BME280;4893;42.024;23.098;2022-11-20T06:28:30;96306.84;;;17.13;100.00
9709;BME280;4893;42.024;23.098;2022-11-20T06:30:56;96296.47;;;17.06;100.00
9709;BME280;4893;42.024;23.098;2022-11-20T06:33:21;96294.78;;;17.12;100.00
9709;BME280;4893;42.024;23.098;2022-11-20T06:35:47;96292.94;;;17.01;100.00
9709;BME280;4893;42.024;23.098;2022-11-20T06:38:12;96290.66;;;16.93;100.00
9709;BME280;4893;42.024;23.098;2022-11-20T06:40:40;96276.78;;;16.81;100.00
9709;BME280;4893;42.024;23.098;2022-11-20T06:43:06;96295.03;;;16.76;100.00
9709;BME280;4893;42.024;23.098;2022-11-20T06:45:31;96290.69;;;16.70;100.00
9709;BME280;4893;42.024;23.098;2022-11-20T06:47:57;96279.88;;;16.66;100.00
9709;BME280;4893;42.024;23.098;2022-11-20T06:50:23;96286.09;;;16.53;100.00
9709;BME280;4893;42.024;23.098;2022-11-20T06:52:48;96284.75;;;16.63;100.00
9709;BME280;4893;42.024;23.098;2022-11-20T06:55:14;96289.41;;;16.49;100.00
9709;BME280;4893;42.024;23.098;2022-11-20T06:57:39;96284.72;;;16.39;100.00
9709;BME280;4893;42.024;23.098;2022-11-20T07:00:05;96280.50;;;16.38;100.00
9709;BME280;4893;42.024;23.098;2022-11-20T07:02:30;96292.50;;;16.46;100.00
9709;BME280;4893;42.024;23.098;2022-11-20T07:04:56;96294.19;;;16.40;100.00
9709;BME280;4893;42.024;23.098;2022-11-20T07:07:21;96280.38;;;16.33;100.00
9709;BME280;4893;42.024;23.098;2022-11-20T07:09:50;96263.28;;;16.19;100.00
9709;BME280;4893;42.024;23.098;2022-11-20T07:12:15;96279.47;;;16.39;100.00
9709;BME280;4893;42.024;23.098;2022-11-20T07:14:41;96273.31;;;16.34;100.00
9709;BME280;4893;42.024;23.098;2022-11-20T07:17:06;96278.34;;;16.35;100.00
9709;BME280;4893;42.024;23.098;2022-11-20T07:19:31;96274.56;;;16.43;100.00
9709;BME280;4893;42.024;23.098;2022-11-20T07:21:57;96273.75;;;16.42;100.00
9709;BME280;4893;42.024;23.098;2022-11-20T07:24:22;96273.09;;;16.47;100.00
9709;BME280;4893;42.024;23.098;2022-11-20T07:26:48;96280.09;;;16.53;100.00
9709;BME280;4893;42.024;23.098;2022-11-20T07:29:16;96284.63;;;16.57;100.00
9709;BME280;4893;42.024;23.098;2022-11-20T07:31:42;96283.59;;;16.58;100.00
9709;BME280;4893;42.024;23.098;2022-11-20T07:34:08;96277.34;;;16.59;100.00
9709;BME280;4893;42.024;23.098;2022-11-20T07:36:34;96277.78;;;16.68;100.00
9709;BME280;4893;42.024;23.098;2022-11-20T07:39:00;96288.41;;;16.73;100.00
9709;BME280;4893;42.024;23.098;2022-11-20T07:41:25;96288.38;;;16.85;100.00
9709;BME280;4893;42.024;23.098;2022-11-20T07:43:51;96297.66;;;16.87;100.00
9709;BME280;4893;42.024;23.098;2022-11-20T07:46:16;96265.47;;;16.80;100.00
9709;BME280;4893;42.024;23.098;2022-11-20T07:48:41;96287.25;;;16.92;100.00
9709;BME280;4893;42.024;23.098;2022-11-20T07:51:08;96279.03;;;17.00;100.00
9709;BME280;4893;42.024;23.098;2022-11-20T07:53:33;96286.91;;;17.12;100.00
9709;BME280;4893;42.024;23.098;2022-11-20T07:56:00;96274.75;;;17.22;100.00
9709;BME280;4893;42.024;23.098;2022-11-20T07:58:26;96287.66;;;17.24;100.00
9709;BME280;4893;42.024;23.098;2022-11-20T08:00:53;96241.06;;;16.91;100.00
9709;BME280;4893;42.024;23.098;2022-11-20T08:03:19;96290.38;;;17.29;100.00
9709;BME280;4893;42.024;23.098;2022-11-20T08:05:44;96289.28;;;17.25;100.00
9709;BME280;4893;42.024;23.098;2022-11-20T08:08:10;96289.91;;;17.32;100.00
9709;BME280;4893;42.024;23.098;2022-11-20T08:10:35;96283.19;;;17.36;100.00
9709;BME280;4893;42.024;23.098;2022-11-20T08:13:00;96279.38;;;17.43;100.00
9709;BME280;4893;42.024;23.098;2022-11-20T08:15:49;96280.00;;;17.45;100.00
9709;BME280;4893;42.024;23.098;2022-11-20T08:18:17;96276.56;;;17.45;100.00
9709;BME280;4893;42.024;23.098;2022-11-20T08:20:43;96279.19;;;17.45;100.00
9709;BME280;4893;42.024;23.098;2022-11-20T08:23:08;96281.09;;;17.49;100.00
9709;BME280;4893;42.024;23.098;2022-11-20T08:25:36;96287.88;;;17.45;100.00
9709;BME280;4893;42.024;23.098;2022-11-20T08:28:06;96276.44;;;17.51;100.00
9709;BME280;4893;42.024;23.098;2022-11-20T08:30:33;96294.66;;;17.58;100.00
9709;BME280;4893;42.024;23.098;2022-11-20T08:33:07;96286.09;;;17.62;100.00
9709;BME280;4893;42.024;23.098;2022-11-20T08:35:37;96287.56;;;17.70;100.00
9709;BME280;4893;42.024;23.098;2022-11-20T08:38:03;96271.41;;;17.50;100.00
9709;BME280;4893;42.024;23.098;2022-11-20T08:40:29;96288.75;;;17.51;100.00
9709;BME280;4893;42.024;23.098;2022-11-20T08:42:55;96293.63;;;17.59;100.00
9709;BME280;4893;42.024;23.098;2022-11-20T08:45:20;96287.59;;;17.58;100.00
9709;BME280;4893;42.024;23.098;2022-11-20T08:47:46;96292.50;;;17.55;100.00
9709;BME280;4893;42.024;23.098;2022-11-20T08:50:13;96293.41;;;17.60;100.00
9709;BME280;4893;42.024;23.098;2022-11-20T08:52:43;96295.72;;;17.57;100.00
9709;BME280;4893;42.024;23.098;2022-11-20T08:55:09;96289.09;;;17.54;100.00
9709;BME280;4893;42.024;23.098;2022-11-20T08:57:37;96297.53;;;17.56;100.00
9709;BME280;4893;42.024;23.098;2022-11-20T09:00:05;96288.75;;;17.51;100.00
9709;BME280;4893;42.024;23.098;2022-11-20T09:02:31;96301.97;;;17.56;100.00
9709;BME280;4893;42.024;23.098;2022-11-20T09:04:57;96292.75;;;17.53;100.00
9709;BME280;4893;42.024;23.098;2022-11-20T09:07:24;96293.97;;;17.62;100.00
9709;BME280;4893;42.024;23.098;2022-11-20T09:09:58;96285.47;;;17.72;100.00
9709;BME280;4893;42.024;23.098;2022-11-20T09:12:23;96299.66;;;17.71;100.00
9709;BME280;4893;42.024;23.098;2022-11-20T09:14:49;96275.34;;;17.64;100.00
9709;BME280;4893;42.024;23.098;2022-11-20T09:17:14;96279.78;;;17.75;100.00
9709;BME280;4893;42.024;23.098;2022-11-20T09:19:40;96283.88;;;17.71;100.00
9709;BME280;4893;42.024;23.098;2022-11-20T09:22:05;96282.41;;;17.75;100.00
9709;BME280;4893;42.024;23.098;2022-11-20T09:24:31;96283.50;;;17.79;100.00
9709;BME280;4893;42.024;23.098;2022-11-20T09:26:56;96282.66;;;17.90;100.00
9709;BME280;4893;42.024;23.098;2022-11-20T09:29:22;96287.53;;;17.98;100.00
9709;BME280;4893;42.024;23.098;2022-11-20T09:31:47;96283.16;;;18.04;100.00
9709;BME280;4893;42.024;23.098;2022-11-20T09:34:12;96290.81;;;18.05;100.00
9709;BME280;4893;42.024;23.098;2022-11-20T09:36:38;96279.66;;;18.15;100.00
9709;BME280;4893;42.024;23.098;2022-11-20T09:39:03;96283.19;;;18.20;100.00
9709;BME280;4893;42.024;23.098;2022-11-20T09:41:56;96276.00;;;18.16;100.00
9709;BME280;4893;42.024;23.098;2022-11-20T09:44:32;96283.19;;;18.20;100.00
9709;BME280;4893;42.024;23.098;2022-11-20T09:55:32;96261.34;;;18.20;100.00
9709;BME280;4893;42.024;23.098;2022-11-20T09:58:00;96257.91;;;18.19;100.00
9709;BME280;4893;42.024;23.098;2022-11-20T10:00:31;96257.16;;;18.19;100.00
9709;BME280;4893;42.024;23.098;2022-11-20T10:03:11;96252.81;;;18.13;100.00
9709;BME280;4893;42.024;23.098;2022-11-20T10:05:48;96242.31;;;18.13;100.00
9709;BME280;4893;42.024;23.098;2022-11-20T10:08:25;96255.69;;;18.11;100.00
9709;BME280;4893;42.024;23.098;2022-11-20T10:13:49;96249.00;;;18.04;100.00
9709;BME280;4893;42.024;23.098;2022-11-20T10:24:42;96226.13;;;17.87;100.00
9709;BME280;4893;42.024;23.098;2022-11-20T10:30:20;96246.81;;;17.84;100.00
9709;BME280;4893;42.024;23.098;2022-11-20T10:32:52;96251.50;;;17.82;100.00
9709;BME280;4893;42.024;23.098;2022-11-20T10:35:36;96249.06;;;17.64;100.00
9709;BME280;4893;42.024;23.098;2022-11-20T10:38:09;96246.00;;;17.67;100.00
9709;BME280;4893;42.024;23.098;2022-11-20T10:40:44;96243.91;;;17.69;100.00
9709;BME280;4893;42.024;23.098;2022-11-20T10:45:48;96233.22;;;17.59;100.00
9709;BME280;4893;42.024;23.098;2022-11-20T10:48:19;96233.78;;;17.61;100.00
9709;BME280;4893;42.024;23.098;2022-11-20T10:51:00;96211.91;;;17.55;100.00
9709;BME280;4893;42.024;23.098;2022-11-20T10:56:29;96229.13;;;17.63;100.00
9709;BME280;4893;42.024;23.098;2022-11-20T11:01:43;96220.47;;;17.51;100.00
9709;BME280;4893;42.024;23.098;2022-11-20T11:07:19;96229.13;;;17.63;100.00
9709;BME280;4893;42.024;23.098;2022-11-20T11:10:15;96223.75;;;17.58;100.00
9709;BME280;4893;42.024;23.098;2022-11-20T11:12:45;96225.34;;;17.59;100.00
9709;BME280;4893;42.024;23.098;2022-11-20T11:15:28;96230.06;;;17.57;100.00
9709;BME280;4893;42.024;23.098;2022-11-20T11:17:54;96233.47;;;17.57;100.00
9709;BME280;4893;42.024;23.098;2022-11-20T11:20:22;96234.38;;;17.63;100.00
9709;BME280;4893;42.024;23.098;2022-11-20T11:25:34;96221.28;;;17.51;100.00
9709;BME280;4893;42.024;23.098;2022-11-20T11:30:28;96258.38;;;17.55;100.00
9709;BME280;4893;42.024;23.098;2022-11-20T11:36:18;96260.91;;;17.50;100.00
9709;BME280;4893;42.024;23.098;2022-11-20T11:38:44;96242.88;;;17.42;100.00
9709;BME280;4893;42.024;23.098;2022-11-20T11:41:17;96247.22;;;17.48;100.00
9709;BME280;4893;42.024;23.098;2022-11-20T11:43:57;96274.97;;;17.32;100.00
9709;BME280;4893;42.024;23.098;2022-11-20T11:46:52;96259.03;;;17.22;100.00
9709;BME280;4893;42.024;23.098;2022-11-20T11:49:19;96282.19;;;17.14;100.00
9709;BME280;4893;42.024;23.098;2022-11-20T11:57:16;96278.09;;;17.06;100.00
9709;BME280;4893;42.024;23.098;2022-11-20T12:05:16;96263.63;;;17.04;100.00
9709;BME280;4893;42.024;23.098;2022-11-20T12:07:46;96267.84;;;17.05;100.00
9709;BME280;4893;42.024;23.098;2022-11-20T12:10:48;96269.53;;;17.22;100.00
9709;BME280;4893;42.024;23.098;2022-11-20T12:15:55;96262.81;;;17.15;100.00
9709;BME280;4893;42.024;23.098;2022-11-20T12:18:22;96263.03;;;17.25;100.00
9709;BME280;4893;42.024;23.098;2022-11-20T12:30:12;96228.72;;;17.03;100.00
9709;BME280;4893;42.024;23.098;2022-11-20T12:44:00;96207.16;;;17.01;100.00
9709;BME280;4893;42.024;23.098;2022-11-20T12:50:15;96207.03;;;17.08;100.00
9709;BME280;4893;42.024;23.098;2022-11-20T12:52:53;96208.72;;;17.14;100.00
9709;BME280;4893;42.024;23.098;2022-11-20T13:03:43;96193.91;;;17.08;100.00
9709;BME280;4893;42.024;23.098;2022-11-20T13:08:40;96202.25;;;17.05;100.00
9709;BME280;4893;42.024;23.098;2022-11-20T13:14:11;96173.03;;;17.13;100.00
9709;BME280;4893;42.024;23.098;2022-11-20T13:19:39;96166.19;;;17.12;100.00
9709;BME280;4893;42.024;23.098;2022-11-20T13:22:08;96166.88;;;17.07;100.00
9709;BME280;4893;42.024;23.098;2022-11-20T13:24:33;96173.13;;;17.18;100.00
9709;BME280;4893;42.024;23.098;2022-11-20T13:29:26;96166.13;;;17.23;100.00
9709;BME280;4893;42.024;23.098;2022-11-20T13:32:12;96170.06;;;17.09;100.00
9709;BME280;4893;42.024;23.098;2022-11-20T13:34:39;96150.63;;;16.94;100.00
9709;BME280;4893;42.024;23.098;2022-11-20T13:37:04;96164.50;;;16.94;100.00
9709;BME280;4893;42.024;23.098;2022-11-20T13:39:34;96164.22;;;16.91;100.00
9709;BME280;4893;42.024;23.098;2022-11-20T13:42:25;96161.25;;;16.87;100.00
9709;BME280;4893;42.024;23.098;2022-11-20T13:45:00;96150.41;;;16.84;100.00
9709;BME280;4893;42.024;23.098;2022-11-20T13:47:28;96120.47;;;16.68;100.00
9709;BME280;4893;42.024;23.098;2022-11-20T13:49:55;96132.91;;;16.73;100.00
9709;BME280;4893;42.024;23.098;2022-11-20T14:00:29;96137.94;;;16.63;100.00
9709;BME280;4893;42.024;23.098;2022-11-20T14:05:35;96137.13;;;16.62;100.00
9709;BME280;4893;42.024;23.098;2022-11-20T14:08:03;96127.78;;;16.66;100.00
9709;BME280;4893;42.024;23.098;2022-11-20T14:10:37;96124.47;;;16.71;100.00
9709;BME280;4893;42.024;23.098;2022-11-20T14:13:16;96116.91;;;16.86;100.00
9709;BME280;4893;42.024;23.098;2022-11-20T14:15:42;96119.28;;;16.87;100.00
9709;BME280;4893;42.024;23.098;2022-11-20T14:18:19;96133.03;;;16.94;100.00
9709;BME280;4893;42.024;23.098;2022-11-20T14:20:47;96135.66;;;16.94;100.00
9709;BME280;4893;42.024;23.098;2022-11-20T14:23:23;96121.53;;;16.95;100.00
9709;BME280;4893;42.024;23.098;2022-11-20T14:25:51;96115.16;;;16.91;100.00
9709;BME280;4893;42.024;23.098;2022-11-20T14:28:30;96087.13;;;16.80;100.00
9709;BME280;4893;42.024;23.098;2022-11-20T14:30:56;96094.31;;;16.85;100.00
9709;BME280;4893;42.024;23.098;2022-11-20T14:33:25;96097.97;;;16.84;100.00
9709;BME280;4893;42.024;23.098;2022-11-20T14:35:56;96093.19;;;16.81;100.00
9709;BME280;4893;42.024;23.098;2022-11-20T14:38:28;96086.09;;;16.81;100.00
9709;BME280;4893;42.024;23.098;2022-11-20T14:40:53;96098.91;;;16.78;100.00
9709;BME280;4893;42.024;23.098;2022-11-20T14:43:26;96112.25;;;16.76;100.00
9709;BME280;4893;42.024;23.098;2022-11-20T14:46:20;96110.91;;;16.62;100.00
9709;BME280;4893;42.024;23.098;2022-11-20T14:48:49;96109.00;;;16.57;100.00
9709;BME280;4893;42.024;23.098;2022-11-20T14:54:15;96116.50;;;16.42;100.00
9709;BME280;4893;42.024;23.098;2022-11-20T14:56:53;96126.34;;;16.35;100.00
9709;BME280;4893;42.024;23.098;2022-11-20T14:59:23;96128.84;;;16.30;100.00
9709;BME280;4893;42.024;23.098;2022-11-20T15:02:01;96137.72;;;16.29;100.00
9709;BME280;4893;42.024;23.098;2022-11-20T15:04:28;96133.06;;;16.20;100.00
9709;BME280;4893;42.024;23.098;2022-11-20T15:06:55;96123.03;;;16.17;100.00